Time;durP1;ratioP1;P1;durP2;ratioP2;P2;SDS_P1;SDS_P2;PMS_P1;PMS_P2;Temp;Humidity;BMP_temperature;BMP_pressure;BME280_temperature;BME280_humidity;BME280_pressure;Samples;Min_cycle;Max_cycle;Signal;HPM_P1;HPM_P2
2023/05/19 00:01:55;;;;;;;10.90;6.67;;;13.30;99.90;;;13.39;74.62;95196.59;5041395;28;20995;-69
2023/05/19 00:04:24;;;;;;;6.70;5.80;;;13.30;99.90;;;13.41;74.88;95204.38;5043044;28;20470;-61
2023/05/19 00:06:51;;;;;;;9.43;6.70;;;13.30;99.90;;;13.40;74.37;95202.72;5047630;28;20912;-60
2023/05/19 00:09:19;;;;;;;7.57;6.83;;;13.30;99.90;;;13.40;74.69;95202.72;5043527;28;20456;-63
2023/05/19 00:11:47;;;;;;;8.63;7.27;;;13.30;99.90;;;13.38;74.34;95205.50;5044746;28;20785;-61
2023/05/19 00:14:15;;;;;;;8.57;6.33;;;13.30;99.90;;;13.38;74.92;95208.16;5043028;28;21016;-60
2023/05/19 00:16:43;;;;;;;6.63;6.00;;;13.30;99.90;;;13.40;74.93;95202.72;5045476;28;20482;-69
2023/05/19 00:19:10;;;;;;;6.90;6.20;;;13.30;99.90;;;13.40;74.60;95197.44;5044790;28;20945;-60
2023/05/19 00:21:39;;;;;;;9.40;6.73;;;13.30;99.90;;;13.40;74.82;95186.84;5049315;28;20914;-69
2023/05/19 00:24:07;;;;;;;6.03;5.53;;;13.30;99.90;;;13.41;74.71;95193.81;5045882;28;20460;-60
2023/05/19 00:26:34;;;;;;;7.47;6.50;;;13.30;99.90;;;13.39;74.98;95179.94;5047176;28;20479;-60
2023/05/19 00:29:01;;;;;;;8.40;4.80;;;13.30;99.90;;;13.38;74.63;95189.66;5039233;28;20456;-67
2023/05/19 00:31:30;;;;;;;6.50;5.90;;;13.30;99.90;;;13.38;74.70;95184.38;5048466;28;20467;-59
2023/05/19 00:33:57;;;;;;;6.10;5.50;;;13.30;99.90;;;13.38;74.30;95183.53;5040452;28;20820;-69
2023/05/19 00:36:25;;;;;;;6.60;6.00;;;13.30;99.90;;;13.33;74.23;95181.34;5045250;28;20530;-58
2023/05/19 00:38:54;;;;;;;6.97;6.27;;;13.30;99.90;;;13.32;74.07;95187.56;5045765;28;20819;-60
2023/05/19 00:41:21;;;;;;;5.97;5.47;;;13.30;99.90;;;13.30;74.40;95184.25;5042342;28;20925;-59
2023/05/19 00:43:49;;;;;;;9.10;5.60;;;13.20;99.90;;;13.27;74.37;95188.00;5048405;28;20860;-59
2023/05/19 00:46:16;;;;;;;11.10;6.13;;;13.20;99.90;;;13.26;74.38;95180.25;5042305;28;20472;-60
2023/05/19 00:48:44;;;;;;;6.73;6.03;;;13.20;99.90;;;13.24;74.49;95179.56;5044469;28;20512;-69
2023/05/19 00:51:13;;;;;;;7.50;6.50;;;13.20;99.90;;;13.22;74.34;95176.25;5043912;28;20609;-60
2023/05/19 00:53:42;;;;;;;8.30;6.57;;;13.20;99.90;;;13.19;74.63;95164.16;5049727;28;20443;-60
2023/05/19 00:56:11;;;;;;;7.17;6.47;;;13.10;99.90;;;13.18;74.46;95178.34;5043259;28;20460;-68
2023/05/19 00:58:38;;;;;;;11.80;7.93;;;13.10;99.90;;;13.15;74.46;95178.66;5042515;28;20448;-60
2023/05/19 01:01:06;;;;;;;8.60;7.53;;;13.10;99.90;;;13.13;74.55;95182.41;5040072;28;20924;-60
2023/05/19 01:03:34;;;;;;;9.00;7.30;;;13.10;99.90;;;13.09;74.47;95179.25;5042866;28;20497;-69
2023/05/19 01:06:03;;;;;;;7.60;6.90;;;13.00;99.90;;;13.07;74.74;95183.84;5040600;28;20537;-60
2023/05/19 01:08:32;;;;;;;7.87;7.07;;;13.00;99.90;;;13.05;74.75;95183.97;5049677;28;20471;-70
2023/05/19 01:10:59;;;;;;;8.57;7.67;;;13.00;99.90;;;13.01;74.54;95177.34;5041014;28;20879;-69
2023/05/19 01:13:28;;;;;;;12.57;8.23;;;13.00;99.90;;;12.98;74.82;95168.88;5039765;28;20551;-69
2023/05/19 01:16:06;;;;;;;9.90;8.30;;;12.90;99.90;;;12.94;74.72;95176.25;5045164;28;20994;-68
2023/05/19 01:18:46;;;;;;;9.57;8.57;;;12.90;99.90;;;12.91;74.96;95177.38;5041807;28;20465;-69
2023/05/19 01:21:59;;;;;;;9.57;8.10;;;12.90;99.90;;;12.88;75.18;95176.84;5042889;28;20583;-68
2023/05/19 01:24:45;;;;;;;16.60;9.23;;;12.80;99.90;;;12.87;75.53;95185.75;5042303;28;20455;-59
2023/05/19 01:27:41;;;;;;;8.70;7.83;;;12.80;99.90;;;12.83;75.50;95174.66;5051962;28;20475;-59
2023/05/19 01:30:31;;;;;;;11.27;8.80;;;12.80;99.90;;;12.82;75.43;95178.25;5018055;28;20460;-70
2023/05/19 01:33:00;;;;;;;8.40;7.50;;;12.80;99.90;;;12.79;75.39;95173.28;5049042;28;20486;-60
2023/05/19 01:35:28;;;;;;;8.63;6.70;;;12.80;99.90;;;12.76;75.31;95180.66;5047212;28;20452;-62
2023/05/19 01:37:56;;;;;;;8.80;7.30;;;12.70;99.90;;;12.71;75.13;95176.63;5059084;28;21328;-69
2023/05/19 01:40:24;;;;;;;8.63;7.30;;;12.70;99.90;;;12.67;75.10;95180.56;5043835;28;20471;-70
2023/05/19 01:42:53;;;;;;;8.93;7.73;;;12.60;99.90;;;12.61;75.48;95189.06;5049875;28;20479;-60
2023/05/19 01:45:21;;;;;;;8.00;7.17;;;12.60;99.90;;;12.58;75.31;95188.50;5041123;28;20463;-59
2023/05/19 01:47:51;;;;;;;15.37;7.67;;;12.50;99.90;;;12.54;75.45;95190.59;5043666;28;20550;-60
2023/05/19 01:50:19;;;;;;;12.27;7.87;;;12.50;99.90;;;12.52;75.60;95180.19;5047593;28;20515;-69
2023/05/19 01:52:46;;;;;;;7.63;6.93;;;12.50;99.90;;;12.52;75.67;95184.66;5040873;28;20483;-59
2023/05/19 01:55:13;;;;;;;8.63;6.67;;;12.50;99.90;;;12.49;75.38;95183.13;5038545;28;20795;-71
2023/05/19 01:57:48;;;;;;;8.60;7.67;;;12.50;99.90;;;12.46;75.78;95196.59;5045465;28;20488;-58
2023/05/19 02:00:21;;;;;;;10.20;8.10;;;12.40;99.90;;;12.44;75.83;95189.78;5040856;28;20976;-58
2023/05/19 02:02:59;;;;;;;9.03;7.90;;;12.40;99.90;;;12.42;75.89;95186.47;5038950;28;21087;-58
2023/05/19 02:05:31;;;;;;;10.77;7.90;;;12.40;99.90;;;12.41;75.85;95185.66;5043327;28;20520;-71
2023/05/19 02:08:02;;;;;;;9.27;7.63;;;12.40;99.90;;;12.42;75.86;95189.94;5042332;28;20492;-60
2023/05/19 02:10:30;;;;;;;13.33;8.43;;;12.40;99.90;;;12.43;76.25;95188.16;5045420;28;20448;-59
2023/05/19 02:13:01;;;;;;;18.00;9.00;;;12.40;99.90;;;12.44;76.00;95179.22;5047570;28;20558;-59
2023/05/19 02:15:31;;;;;;;9.60;8.67;;;12.40;99.90;;;12.44;76.08;95189.78;5049792;28;20969;-68
2023/05/19 02:18:03;;;;;;;10.47;8.70;;;12.40;99.90;;;12.43;75.91;95199.53;5042215;28;20551;-60
2023/05/19 02:20:30;;;;;;;13.97;9.20;;;12.40;99.90;;;12.43;76.50;95202.16;5042045;28;20959;-60
2023/05/19 02:22:58;;;;;;;13.47;9.17;;;12.40;99.90;;;12.41;76.14;95196.19;5045766;28;20490;-71
2023/05/19 02:25:26;;;;;;;12.60;9.90;;;12.40;99.90;;;12.42;76.41;95189.09;5044161;28;20459;-58
2023/05/19 02:27:53;;;;;;;10.70;9.20;;;12.40;99.90;;;12.42;76.29;95203.13;5042043;28;20549;-70
2023/05/19 02:30:20;;;;;;;15.23;9.70;;;12.40;99.90;;;12.44;76.37;95202.97;5046890;28;20456;-59
2023/05/19 02:32:47;;;;;;;11.63;9.80;;;12.40;99.90;;;12.45;76.55;95205.47;5044014;28;20495;-59
2023/05/19 02:35:16;;;;;;;12.60;9.60;;;12.40;99.90;;;12.45;76.31;95194.91;5042728;28;20579;-62
2023/05/19 02:37:44;;;;;;;12.17;9.20;;;12.40;99.90;;;12.46;76.63;95193.94;5047340;28;20525;-68
2023/05/19 02:40:12;;;;;;;11.47;8.60;;;12.40;99.90;;;12.47;76.44;95190.34;5047741;28;20451;-71
2023/05/19 02:42:39;;;;;;;13.53;9.50;;;12.40;99.90;;;12.48;76.37;95184.09;5041040;28;21026;-69
2023/05/19 02:45:07;;;;;;;11.87;9.10;;;12.50;99.90;;;12.49;76.45;95193.66;5041812;28;20459;-69
2023/05/19 02:47:35;;;;;;;10.33;9.27;;;12.50;99.90;;;12.51;76.24;95190.88;5044433;28;20540;-60
2023/05/19 02:50:02;;;;;;;20.13;9.77;;;12.50;99.90;;;12.51;76.12;95194.34;5040559;28;20988;-73
2023/05/19 02:52:31;;;;;;;18.00;8.40;;;12.50;99.90;;;12.52;76.43;95203.94;5040444;28;20551;-70
2023/05/19 02:54:58;;;;;;;21.10;14.07;;;12.50;99.90;;;12.51;76.22;95202.25;5040832;28;20467;-71
2023/05/19 02:57:25;;;;;;;11.80;10.07;;;12.50;99.90;;;12.50;75.95;95200.63;5045513;28;20470;-61
2023/05/19 02:59:53;;;;;;;13.67;10.97;;;12.50;99.90;;;12.49;76.03;95193.66;5042920;28;20458;-71
2023/05/19 03:02:20;;;;;;;13.33;10.20;;;12.50;99.90;;;12.48;75.91;95202.53;5042971;28;20492;-59
2023/05/19 03:04:47;;;;;;;23.97;18.03;;;12.50;99.90;;;12.48;75.92;95196.44;5041519;28;20974;-71
2023/05/19 03:07:15;;;;;;;26.17;14.90;;;12.50;99.90;;;12.46;76.15;95204.50;5047079;28;20472;-59
2023/05/19 03:09:43;;;;;;;32.10;23.80;;;12.40;99.90;;;12.46;76.28;95214.25;5045910;28;20466;-61
2023/05/19 03:12:11;;;;;;;21.07;13.77;;;12.40;99.90;;;12.47;76.16;95219.38;5044882;28;20476;-61
2023/05/19 03:14:38;;;;;;;18.07;12.60;;;12.40;99.90;;;12.47;76.25;95216.72;5050012;28;20451;-72
2023/05/19 03:17:08;;;;;;;14.33;11.10;;;12.50;99.90;;;12.48;76.77;95213.09;5039202;28;20464;-59
2023/05/19 03:19:36;;;;;;;12.00;9.93;;;12.50;99.90;;;12.49;76.35;95213.94;5046825;28;20452;-70
2023/05/19 03:22:03;;;;;;;21.90;11.90;;;12.50;99.90;;;12.50;76.51;95216.44;5050260;28;20487;-73
2023/05/19 03:24:31;;;;;;;14.40;11.07;;;12.50;99.90;;;12.51;76.41;95206.72;5044704;28;20478;-71
2023/05/19 03:27:01;;;;;;;15.00;10.90;;;12.50;99.90;;;12.51;76.27;95207.53;5049718;28;20510;-70
2023/05/19 03:29:29;;;;;;;12.23;9.70;;;12.50;99.90;;;12.52;76.16;95206.56;5047687;28;20475;-59
2023/05/19 03:31:58;;;;;;;13.70;10.33;;;12.50;99.90;;;12.53;76.07;95204.75;5051905;28;20495;-59
2023/05/19 03:34:26;;;;;;;12.20;8.80;;;12.50;99.90;;;12.53;76.01;95210.88;5050182;28;20463;-60
2023/05/19 03:36:53;;;;;;;11.90;9.23;;;12.50;99.90;;;12.57;76.40;95213.25;5044920;28;20575;-70
2023/05/19 03:39:20;;;;;;;13.97;9.33;;;12.50;99.90;;;12.58;76.40;95209.59;5043557;28;20979;-61
2023/05/19 03:41:47;;;;;;;11.23;8.50;;;12.60;99.90;;;12.59;76.15;95214.75;5048673;28;20507;-65
2023/05/19 03:44:16;;;;;;;11.60;9.57;;;12.60;99.90;;;12.62;76.35;95208.34;5054478;28;20460;-59
2023/05/19 03:46:43;;;;;;;15.27;10.20;;;12.60;99.90;;;12.66;76.20;95209.75;5048302;28;20471;-67
2023/05/19 03:49:12;;;;;;;10.53;8.33;;;12.60;99.90;;;12.70;76.52;95211.94;5047887;28;20452;-58
2023/05/19 03:51:39;;;;;;;10.43;9.13;;;12.60;99.90;;;12.76;76.96;95215.78;5047343;28;20550;-68
2023/05/19 03:54:07;;;;;;;13.40;10.63;;;12.70;99.90;;;12.81;76.47;95218.84;5051056;28;20454;-59
2023/05/19 03:56:34;;;;;;;17.80;10.40;;;12.70;99.90;;;12.85;76.51;95220.19;5044184;28;21016;-59
2023/05/19 03:59:02;;;;;;;14.13;9.90;;;12.80;99.90;;;12.89;76.68;95218.94;5049313;28;20483;-68
2023/05/19 04:01:30;;;;;;;12.67;9.03;;;12.80;99.90;;;12.94;76.32;95222.97;5046241;28;20564;-63
2023/05/19 04:03:57;;;;;;;13.17;9.83;;;12.90;99.90;;;12.99;75.95;95223.34;5039841;28;20455;-59
2023/05/19 04:06:25;;;;;;;10.57;8.83;;;12.90;99.90;;;13.02;75.86;95226.53;5050378;28;20483;-66
2023/05/19 04:08:52;;;;;;;14.57;11.47;;;12.90;99.90;;;13.05;75.55;95220.94;5050688;28;20456;-68
2023/05/19 04:11:20;;;;;;;12.73;9.90;;;13.00;99.90;;;13.09;75.93;95222.34;5039747;28;20472;-60
2023/05/19 04:13:47;;;;;;;15.20;10.60;;;13.00;99.90;;;13.15;75.53;95235.91;5052486;28;20888;-67
2023/05/19 04:16:15;;;;;;;13.10;10.07;;;13.10;99.90;;;13.18;75.33;95231.16;5037329;28;20502;-66
2023/05/19 04:18:45;;;;;;;11.83;9.47;;;13.10;99.90;;;13.22;75.33;95237.81;5048181;28;20605;-67
2023/05/19 04:21:12;;;;;;;15.00;9.77;;;13.20;99.90;;;13.30;75.28;95233.63;5048814;28;20478;-60
2023/05/19 04:23:39;;;;;;;12.83;10.40;;;13.20;99.90;;;13.35;75.15;95231.41;5049065;28;20488;-69
2023/05/19 04:26:08;;;;;;;35.57;14.03;;;13.20;99.90;;;13.43;75.19;95229.69;5041739;28;20480;-65
2023/05/19 04:28:38;;;;;;;13.53;9.90;;;13.40;99.90;;;13.50;75.04;95235.19;5048639;28;20963;-64
2023/05/19 04:31:09;;;;;;;18.23;11.53;;;13.40;99.90;;;13.56;74.82;95237.25;5052199;28;20856;-65
2023/05/19 04:33:36;;;;;;;15.07;9.97;;;13.50;99.90;;;13.64;74.39;95236.50;5043834;28;20543;-59
2023/05/19 04:36:07;;;;;;;14.27;10.50;;;13.50;99.90;;;13.69;74.82;95243.97;5047816;28;20506;-59
2023/05/19 04:38:35;;;;;;;14.80;10.70;;;13.60;99.90;;;13.75;74.66;95238.09;5049710;28;20455;-59
2023/05/19 04:41:03;;;;;;;12.77;9.57;;;13.70;99.90;;;13.79;74.82;95237.66;5048135;28;20920;-66
2023/05/19 04:43:30;;;;;;;21.80;10.87;;;13.70;99.90;;;13.83;74.54;95235.53;5044170;28;20509;-67
2023/05/19 04:45:58;;;;;;;14.93;10.47;;;13.70;99.90;;;13.88;74.36;95233.28;5042629;28;20460;-60
2023/05/19 04:48:26;;;;;;;21.70;14.90;;;13.80;99.90;;;13.92;74.19;95239.09;5045707;28;20465;-60
2023/05/19 04:50:53;;;;;;;18.40;12.63;;;13.80;99.90;;;13.96;74.17;95241.28;5044778;28;20533;-59
2023/05/19 04:53:24;;;;;;;14.43;9.80;;;13.90;99.90;;;13.99;73.93;95240.97;5036615;28;20465;-60
2023/05/19 04:55:51;;;;;;;14.63;10.10;;;13.90;99.90;;;14.03;74.00;95241.50;5041146;28;20583;-60
2023/05/19 04:58:19;;;;;;;15.53;11.27;;;13.90;99.90;;;14.07;74.10;95247.31;5038747;28;20952;-59
2023/05/19 05:00:46;;;;;;;15.73;11.10;;;14.00;99.90;;;14.08;73.69;95248.97;5041367;28;20452;-68
2023/05/19 05:03:13;;;;;;;11.27;9.83;;;14.00;99.90;;;14.08;73.59;95254.25;5039219;28;20495;-59
2023/05/19 05:05:41;;;;;;;13.10;10.27;;;14.00;99.90;;;14.12;73.76;95251.16;5037854;28;20455;-68
2023/05/19 05:08:09;;;;;;;26.17;9.50;;;14.00;99.90;;;14.17;74.35;95250.69;5038723;28;20979;-59
2023/05/19 05:10:38;;;;;;;15.73;10.60;;;14.10;99.90;;;14.21;74.20;95256.53;5039541;28;20464;-68
2023/05/19 05:13:06;;;;;;;10.50;9.33;;;14.10;99.90;;;14.26;73.63;95256.91;5039089;28;20861;-59
2023/05/19 05:15:34;;;;;;;12.00;10.27;;;14.10;99.90;;;14.32;73.56;95253.66;5039636;28;21030;-59
2023/05/19 05:18:02;;;;;;;10.80;9.60;;;14.20;99.90;;;14.42;73.66;95256.19;5034790;28;20475;-69
2023/05/19 05:20:32;;;;;;;17.90;10.80;;;14.30;99.90;;;14.50;73.62;95256.25;5039179;28;20462;-68
2023/05/19 05:23:00;;;;;;;15.20;10.60;;;14.40;99.90;;;14.63;73.48;95262.00;5043448;28;20496;-62
2023/05/19 05:25:29;;;;;;;13.27;10.10;;;14.50;99.90;;;14.75;73.42;95256.44;5038382;28;20831;-69
2023/05/19 05:28:03;;;;;;;13.97;10.00;;;14.60;99.90;;;14.89;73.15;95258.53;5039865;28;20484;-60
2023/05/19 05:30:31;;;;;;;13.13;9.20;;;14.70;99.90;;;15.06;73.01;95248.88;5034067;28;20443;-60
2023/05/19 05:32:58;;;;;;;12.00;9.97;;;14.80;99.90;;;15.21;72.91;95249.06;5040509;28;20542;-60
2023/05/19 05:35:25;;;;;;;11.00;9.63;;;15.00;99.90;;;15.38;72.63;95247.31;5035307;28;20448;-69
2023/05/19 05:37:52;;;;;;;15.33;8.93;;;15.10;99.90;;;15.52;71.64;95248.53;5039753;28;20484;-60
2023/05/19 05:40:20;;;;;;;24.83;9.27;;;15.30;99.90;;;15.67;71.23;95249.56;5045176;28;20452;-70
2023/05/19 05:42:47;;;;;;;13.30;9.50;;;15.40;99.90;;;15.82;70.93;95260.41;5038568;28;20491;-70
2023/05/19 05:45:16;;;;;;;10.93;9.07;;;15.60;99.90;;;15.97;70.74;95252.63;5038648;28;20653;-59
2023/05/19 05:47:44;;;;;;;13.20;9.80;;;15.70;99.90;;;16.12;70.08;95252.84;5033701;28;20463;-60
2023/05/19 05:50:13;;;;;;;13.00;9.13;;;15.90;99.90;;;16.28;69.98;95252.84;5037930;28;20453;-59
2023/05/19 05:52:40;;;;;;;11.67;8.53;;;16.00;99.90;;;16.41;69.44;95265.63;5037795;28;20468;-59
2023/05/19 05:55:10;;;;;;;11.90;8.73;;;16.20;99.90;;;16.56;69.50;95265.78;5041532;28;20839;-59
2023/05/19 05:57:37;;;;;;;9.40;8.20;;;16.30;99.90;;;16.70;68.60;95266.94;5035667;28;20857;-58
2023/05/19 06:00:09;;;;;;;19.33;9.67;;;16.40;99.90;;;16.83;68.09;95259.25;5041427;28;20447;-61
2023/05/19 06:02:38;;;;;;;12.43;8.47;;;16.50;99.90;;;16.96;68.07;95265.91;5037989;28;20495;-69
2023/05/19 06:05:06;;;;;;;13.37;8.43;;;16.70;99.90;;;17.10;67.58;95267.91;5035507;28;20456;-59
2023/05/19 06:07:33;;;;;;;12.33;7.80;;;16.80;99.90;;;17.24;67.28;95268.16;5039907;28;21401;-59
2023/05/19 06:10:00;;;;;;;10.47;8.30;;;16.90;99.90;;;17.36;67.47;95272.13;5039567;28;20451;-69
2023/05/19 06:12:28;;;;;;;13.70;9.13;;;17.10;99.90;;;17.49;66.77;95275.06;5037886;28;20476;-70
2023/05/19 06:14:55;;;;;;;11.10;8.00;;;17.20;99.90;;;17.63;66.21;95277.97;5040296;28;20561;-60
2023/05/19 06:17:22;;;;;;;17.07;8.07;;;17.30;99.90;;;17.77;65.93;95274.59;5033136;28;20875;-70
2023/05/19 06:19:51;;;;;;;8.30;7.50;;;17.40;99.90;;;17.90;65.27;95272.22;5039596;28;20558;-60
2023/05/19 06:22:18;;;;;;;8.20;7.40;;;17.60;99.90;;;18.06;65.29;95270.47;5046052;28;20486;-59
2023/05/19 06:24:45;;;;;;;7.67;6.93;;;17.70;99.90;;;18.19;64.38;95268.06;5040402;28;20459;-69
2023/05/19 06:27:12;;;;;;;15.57;8.27;;;17.90;99.90;;;18.34;64.52;95269.94;5036915;28;20992;-59
2023/05/19 06:29:40;;;;;;;11.57;7.77;;;18.00;99.90;;;18.48;64.25;95279.00;5038816;28;20459;-69
2023/05/19 06:32:07;;;;;;;12.63;8.77;;;18.10;99.90;;;18.62;63.88;95276.38;5040910;28;20552;-70
2023/05/19 06:34:34;;;;;;;12.70;7.43;;;18.30;99.90;;;18.77;63.43;95280.91;5037145;28;20439;-71
2023/05/19 06:37:03;;;;;;;12.10;7.27;;;18.40;99.90;;;18.94;63.35;95278.94;5042165;28;20567;-62
2023/05/19 06:39:31;;;;;;;9.60;7.67;;;18.60;99.90;;;19.09;62.09;95276.31;5038766;28;20464;-70
2023/05/19 06:41:58;;;;;;;11.43;6.90;;;18.80;99.90;;;19.24;62.55;95269.16;5041197;28;20493;-71
2023/05/19 06:44:25;;;;;;;17.97;7.70;;;18.90;99.90;;;19.35;62.41;95268.69;5046539;28;20455;-69
2023/05/19 06:46:53;;;;;;;10.00;6.77;;;19.00;99.90;;;19.46;62.27;95277.25;5044591;28;20513;-58
2023/05/19 06:49:20;;;;;;;7.30;6.57;;;19.10;99.90;;;19.56;60.95;95275.09;5045612;28;20518;-60
2023/05/19 06:51:48;;;;;;;8.57;6.93;;;19.20;99.90;;;19.69;60.48;95274.47;5043296;28;20484;-65
2023/05/19 06:54:16;;;;;;;10.40;6.50;;;19.30;99.90;;;19.82;60.17;95271.97;5040093;28;20455;-72
2023/05/19 06:56:44;;;;;;;8.10;6.87;;;19.40;99.90;;;19.95;60.80;95284.63;5043835;28;20476;-69
2023/05/19 06:59:11;;;;;;;10.80;6.70;;;19.60;99.90;;;20.04;60.18;95285.34;5042261;28;20448;-71
2023/05/19 07:01:38;;;;;;;7.20;6.17;;;19.70;99.90;;;20.12;58.89;95282.56;5041396;28;20530;-69
2023/05/19 07:04:05;;;;;;;7.80;6.40;;;19.80;99.80;;;20.27;57.93;95282.53;5043129;28;20941;-70
2023/05/19 07:06:33;;;;;;;7.73;5.60;;;19.90;99.30;;;20.41;58.06;95291.50;5041843;28;20472;-59
2023/05/19 07:09:00;;;;;;;7.77;5.97;;;20.00;99.20;;;20.54;58.29;95280.09;5042032;28;20964;-58
2023/05/19 07:11:29;;;;;;;11.40;5.97;;;20.20;99.40;;;20.68;57.76;95281.91;5043706;28;20503;-59
2023/05/19 07:13:56;;;;;;;10.30;6.83;;;20.30;98.90;;;20.82;58.10;95284.69;5041938;28;20541;-71
2023/05/19 07:16:24;;;;;;;11.20;6.60;;;20.50;99.20;;;20.96;58.02;95286.47;5039826;28;20550;-70
2023/05/19 07:18:51;;;;;;;12.53;5.80;;;20.60;99.10;;;21.05;57.41;95287.97;5039729;28;20515;-70
2023/05/19 07:21:18;;;;;;;9.93;6.57;;;20.70;98.60;;;21.12;57.36;95288.81;5045190;28;20980;-70
2023/05/19 07:23:45;;;;;;;6.47;5.70;;;20.80;98.60;;;21.14;56.65;95291.31;5040943;28;20480;-60
2023/05/19 07:26:13;;;;;;;8.90;6.20;;;20.80;97.90;;;21.20;55.76;95287.84;5042337;28;20475;-71
2023/05/19 07:28:42;;;;;;;11.43;6.50;;;20.80;97.50;;;21.33;55.89;95288.97;5040441;28;20453;-60
2023/05/19 07:31:09;;;;;;;14.00;6.13;;;21.00;97.50;;;21.47;56.44;95291.53;5043559;28;20507;-64
2023/05/19 07:33:37;;;;;;;9.60;6.30;;;21.10;97.70;;;21.60;56.51;95295.34;5038378;28;20453;-59
2023/05/19 07:36:04;;;;;;;7.70;6.37;;;21.20;97.70;;;21.58;55.71;95292.84;5038318;28;20491;-59
2023/05/19 07:38:33;;;;;;;8.20;6.03;;;21.20;96.90;;;21.53;55.37;95289.09;5043122;28;20863;-60
2023/05/19 07:41:00;;;;;;;8.00;7.20;;;21.20;96.60;;;21.49;55.35;95283.34;5033027;28;20467;-59
2023/05/19 07:43:27;;;;;;;8.77;5.63;;;21.20;96.70;;;21.45;54.61;95285.53;5041540;28;20580;-58
2023/05/19 07:45:56;;;;;;;7.30;5.10;;;21.10;96.10;;;21.44;54.41;95281.22;5042161;28;20456;-59
2023/05/19 07:48:24;;;;;;;10.90;6.33;;;21.10;95.80;;;21.54;54.65;95290.78;5042425;28;20506;-59
2023/05/19 07:50:52;;;;;;;10.70;5.83;;;21.10;95.70;;;21.73;54.04;95290.03;5041747;28;20445;-58
2023/05/19 07:53:19;;;;;;;6.40;5.77;;;21.30;95.80;;;21.96;54.30;95288.91;5044601;28;20486;-58
2023/05/19 07:55:47;;;;;;;6.97;6.37;;;21.50;95.90;;;22.12;53.52;95285.88;5040504;28;20518;-59
2023/05/19 07:58:14;;;;;;;9.67;6.53;;;21.70;95.60;;;22.08;52.52;95281.94;5042527;28;20484;-59
2023/05/19 08:00:42;;;;;;;7.83;6.50;;;21.70;94.50;;;22.01;53.09;95283.75;5039349;28;20956;-70
2023/05/19 08:03:11;;;;;;;16.47;7.13;;;21.70;94.40;;;22.00;52.74;95285.63;5039992;28;20524;-59
2023/05/19 08:05:39;;;;;;;9.57;6.90;;;21.70;94.40;;;22.03;52.30;95282.53;5038518;28;20545;-70
2023/05/19 08:08:06;;;;;;;15.93;7.37;;;21.70;94.00;;;22.10;53.01;95281.72;5041718;28;20451;-58
2023/05/19 08:10:34;;;;;;;18.63;7.13;;;21.70;94.20;;;22.12;51.90;95277.81;5036665;28;20556;-69
2023/05/19 08:13:01;;;;;;;8.37;6.73;;;21.80;93.40;;;22.23;52.79;95286.28;5042317;28;20480;-68
2023/05/19 08:15:28;;;;;;;9.53;6.80;;;21.90;93.70;;;22.36;52.21;95289.03;5037862;28;21188;-71
2023/05/19 08:17:56;;;;;;;7.40;6.70;;;22.00;93.70;;;22.44;51.67;95282.66;5037089;28;20498;-58
2023/05/19 08:20:24;;;;;;;18.67;7.93;;;22.10;92.90;;;22.42;51.63;95284.69;5042152;28;20444;-68
2023/05/19 08:22:52;;;;;;;11.00;7.40;;;22.10;92.70;;;22.51;51.38;95283.47;5042698;28;20484;-69
2023/05/19 08:25:19;;;;;;;10.33;7.40;;;22.10;92.70;;;22.68;51.58;95287.44;5039482;28;20456;-69
2023/05/19 08:27:46;;;;;;;11.37;8.20;;;22.30;93.20;;;22.80;51.08;95284.13;5041894;28;20504;-58
2023/05/19 08:30:14;;;;;;;13.93;7.13;;;22.40;92.40;;;22.90;50.74;95279.19;5041110;28;20460;-68
2023/05/19 08:32:41;;;;;;;7.97;6.67;;;22.50;92.20;;;22.96;51.31;95277.53;5045253;28;20475;-59
2023/05/19 08:35:10;;;;;;;11.30;7.03;;;22.60;92.10;;;23.00;50.07;95284.94;5035072;28;20453;-69
2023/05/19 08:37:38;;;;;;;9.90;7.23;;;22.70;91.60;;;22.98;49.76;95273.63;5041654;28;20558;-70
2023/05/19 08:40:08;;;;;;;11.23;7.00;;;22.70;91.00;;;22.89;49.91;95270.31;5037682;28;20487;-61
2023/05/19 08:42:35;;;;;;;10.00;7.60;;;22.60;90.60;;;22.88;49.53;95274.03;5042161;28;20515;-69
2023/05/19 08:45:03;;;;;;;20.20;8.27;;;22.60;90.60;;;22.91;49.98;95275.47;5038543;28;20458;-59
2023/05/19 08:47:30;;;;;;;26.33;10.80;;;22.60;90.80;;;22.98;50.24;95270.13;5039798;28;20525;-70
2023/05/19 08:50:06;;;;;;;12.17;7.87;;;22.60;90.90;;;23.02;50.30;95260.59;5038903;28;20886;-60
2023/05/19 08:52:40;;;;;;;12.57;8.17;;;22.70;90.60;;;23.07;49.71;95271.56;5031364;28;20489;-60
2023/05/19 08:55:13;;;;;;;10.33;7.60;;;22.70;90.40;;;23.18;49.57;95265.56;5037939;28;20438;-59
2023/05/19 08:57:40;;;;;;;9.23;8.10;;;22.80;89.20;;;23.29;48.85;95268.66;5037926;28;20472;-69
2023/05/19 09:00:10;;;;;;;14.70;7.97;;;22.90;89.20;;;23.41;49.58;95267.81;5042352;28;20459;-59
2023/05/19 09:02:38;;;;;;;17.33;8.07;;;23.00;89.40;;;23.56;49.45;95267.56;5038202;28;20476;-60
2023/05/19 09:05:07;;;;;;;10.00;7.90;;;23.20;89.60;;;23.67;48.73;95274.16;5036312;28;20505;-69
2023/05/19 09:07:34;;;;;;;13.73;8.33;;;23.30;88.40;;;23.69;47.95;95266.69;5038418;28;20507;-71
2023/05/19 09:10:02;;;;;;;16.63;8.00;;;23.30;87.30;;;23.76;47.84;95258.59;5041510;28;20566;-65
2023/05/19 09:12:31;;;;;;;8.57;7.77;;;23.40;86.90;;;23.94;48.07;95252.56;5037878;28;20481;-69
2023/05/19 09:14:58;;;;;;;11.37;7.23;;;23.60;87.30;;;24.10;48.61;95246.69;5042224;28;20452;-59
2023/05/19 09:17:26;;;;;;;11.23;8.30;;;23.70;87.60;;;24.26;47.78;95253.44;5031072;28;20461;-60
2023/05/19 09:19:53;;;;;;;14.93;8.23;;;23.90;86.10;;;24.38;47.09;95244.66;5041667;28;20529;-67
2023/05/19 09:22:20;;;;;;;11.47;7.93;;;24.00;85.20;;;24.48;46.88;95236.97;5041140;28;20529;-59
2023/05/19 09:24:48;;;;;;;11.40;7.47;;;24.10;83.10;;;24.55;46.50;95237.72;5037260;28;20956;-70
2023/05/19 09:27:15;;;;;;;12.57;8.03;;;24.20;82.30;;;24.58;42.85;95234.63;5038963;28;20478;-70
2023/05/19 09:29:45;;;;;;;15.43;7.90;;;24.20;75.60;;;24.62;45.67;95238.53;5031405;28;20977;-69
2023/05/19 09:32:12;;;;;;;12.37;8.00;;;24.30;80.50;;;24.70;45.72;95230.19;5039421;28;20552;-59
2023/05/19 09:34:41;;;;;;;10.33;8.70;;;24.30;79.70;;;24.84;46.21;95232.78;5035629;28;20467;-69
2023/05/19 09:37:09;;;;;;;15.40;9.37;;;24.40;80.30;;;25.00;46.14;95240.31;5037650;28;20475;-60
2023/05/19 09:39:36;;;;;;;15.00;8.33;;;24.60;81.00;;;25.03;46.50;95234.44;5041740;28;20475;-69
2023/05/19 09:42:05;;;;;;;11.43;8.40;;;24.70;80.50;;;25.00;45.55;95237.59;5039771;28;20499;-59
2023/05/19 09:44:34;;;;;;;13.43;8.60;;;24.60;78.50;;;24.95;45.23;95225.84;5038017;28;20519;-69
2023/05/19 09:47:02;;;;;;;10.93;8.40;;;24.60;78.10;;;25.00;45.66;95229.53;5037141;28;20529;-60
2023/05/19 09:49:31;;;;;;;11.40;8.57;;;24.60;79.20;;;25.03;45.46;95233.63;5037295;28;20459;-69
2023/05/19 09:51:59;;;;;;;14.67;8.37;;;24.70;78.00;;;25.03;44.05;95234.44;5040871;28;20475;-60
2023/05/19 09:54:28;;;;;;;22.30;8.40;;;24.70;76.00;;;24.96;44.58;95227.50;5038245;28;20475;-59
2023/05/19 09:56:58;;;;;;;21.53;8.53;;;24.60;76.00;;;24.83;41.72;95218.50;5040217;28;20552;-61
2023/05/19 09:59:26;;;;;;;13.10;9.10;;;24.60;70.60;;;24.78;45.06;95220.19;5038313;28;20481;-59
2023/05/19 10:01:54;;;;;;;9.97;8.83;;;24.50;75.80;;;24.72;43.87;95224.59;5039459;28;20478;-61
2023/05/19 10:04:24;;;;;;;18.63;8.63;;;24.40;73.60;;;24.66;44.56;95220.94;5035053;28;20514;-68
2023/05/19 10:06:53;;;;;;;12.30;9.40;;;24.40;74.50;;;24.63;44.88;95215.97;5045099;28;20501;-70
2023/05/19 10:09:23;;;;;;;11.87;9.27;;;24.30;75.20;;;24.49;44.75;95217.06;5038446;28;20457;-69
2023/05/19 10:11:51;;;;;;;14.23;8.97;;;24.20;75.10;;;24.34;44.91;95217.41;5043551;28;20503;-60
2023/05/19 10:14:20;;;;;;;15.67;9.50;;;24.10;73.60;;;24.25;43.77;95206.09;5037582;28;20463;-58
2023/05/19 10:16:48;;;;;;;13.13;9.40;;;24.00;72.40;;;24.21;45.18;95207.53;5041228;28;20471;-59
2023/05/19 10:19:15;;;;;;;13.53;9.63;;;23.90;73.90;;;24.16;44.81;95202.00;5041499;28;20457;-70